Time;durP1;ratioP1;P1;durP2;ratioP2;P2;SDS_P1;SDS_P2;PMS_P1;PMS_P2;Temp;Humidity;BMP_temperature;BMP_pressure;BME280_temperature;BME280_humidity;BME280_pressure;Samples;Min_cycle;Max_cycle;Signal;HPM_P1;HPM_P2
2022/05/18 00:00:27;;;;;;;1.88;0.90;;;;;;;5.06;100.00;99727.16;5172694;27;20046;-48
2022/05/18 00:02:54;;;;;;;0.77;0.77;;;;;;;5.15;100.00;99733.44;5172580;27;20137;-49
2022/05/18 00:05:20;;;;;;;0.93;0.90;;;;;;;5.17;100.00;99712.97;5172870;27;20493;-49
2022/05/18 00:07:46;;;;;;;2.15;0.90;;;;;;;5.07;100.00;99694.25;5172672;27;20046;-48
2022/05/18 00:10:13;;;;;;;1.60;0.80;;;;;;;4.95;100.00;99691.31;5172642;27;20050;-49
2022/05/18 00:12:44;;;;;;;1.08;0.80;;;;;;;5.01;100.00;99708.28;5172481;27;20505;-50
2022/05/18 00:15:10;;;;;;;1.40;0.90;;;;;;;5.00;100.00;99717.53;5172647;27;20046;-49
2022/05/18 00:17:36;;;;;;;0.93;0.93;;;;;;;5.09;100.00;99711.00;5172414;27;20042;-49
2022/05/18 00:20:03;;;;;;;1.05;0.82;;;;;;;4.97;100.00;99726.34;5172587;27;20042;-49
2022/05/18 00:22:29;;;;;;;0.75;0.75;;;;;;;5.14;100.00;99727.19;5172492;27;20046;-50
2022/05/18 00:24:56;;;;;;;1.20;1.02;;;;;;;5.05;100.00;99703.81;5172289;27;20058;-49
2022/05/18 00:27:22;;;;;;;0.90;0.88;;;;;;;5.23;100.00;99740.00;5172220;27;20057;-49
2022/05/18 00:29:49;;;;;;;0.90;0.90;;;;;;;5.37;100.00;99735.25;5172184;27;20501;-49
2022/05/18 00:32:15;;;;;;;1.60;1.00;;;;;;;5.35;100.00;99716.53;5172265;27;20046;-49
2022/05/18 00:34:41;;;;;;;3.75;1.00;;;;;;;5.45;100.00;99711.91;5172463;27;20410;-49
2022/05/18 00:37:07;;;;;;;1.25;0.80;;;;;;;5.42;100.00;99683.44;5172645;27;20054;-50
2022/05/18 00:39:33;;;;;;;1.48;1.00;;;;;;;5.51;100.00;99662.50;5172461;27;20046;-49
2022/05/18 00:42:00;;;;;;;0.80;0.80;;;;;;;5.72;100.00;99670.03;5172284;27;20050;-50
2022/05/18 00:44:26;;;;;;;1.83;1.05;;;;;;;5.57;100.00;99623.16;5171986;27;20054;-51
2022/05/18 00:46:53;;;;;;;2.47;1.05;;;;;;;5.82;100.00;99609.84;5172195;27;20501;-50
2022/05/18 00:49:19;;;;;;;1.67;0.90;;;;;;;5.68;100.00;99574.66;5172151;27;20497;-49
2022/05/18 00:51:50;;;;;;;1.92;0.90;;;;;;;5.88;100.00;99593.03;5172018;27;20046;-50
2022/05/18 05:44:16;;;;;;;2.30;2.10;;;;;;;7.79;100.00;100057.94;5160405;27;20065;-57
2022/05/18 05:46:42;;;;;;;3.33;2.20;;;;;;;8.05;100.00;100040.69;5153914;27;20055;-57
2022/05/18 05:49:11;;;;;;;3.25;2.28;;;;;;;7.95;100.00;99995.44;5154138;27;20055;-55
2022/05/18 05:51:37;;;;;;;7.53;2.22;;;;;;;8.28;100.00;99981.97;5154108;27;20078;-55
2022/05/18 05:54:03;;;;;;;8.32;2.55;;;;;;;8.36;100.00;99928.38;5153850;27;20054;-56
2022/05/18 05:56:30;;;;;;;3.45;2.30;;;;;;;8.23;100.00;99903.75;5153691;27;20054;-54
2022/05/18 05:58:56;;;;;;;5.20;2.30;;;;;;;8.41;100.00;99896.25;5153631;27;20055;-56
2022/05/18 06:01:23;;;;;;;3.83;2.33;;;;;;;8.30;100.00;99888.72;5153793;27;20051;-56
2022/05/18 06:03:49;;;;;;;2.53;2.33;;;;;;;8.36;100.00;99882.75;5153613;27;20051;-56
2022/05/18 06:06:18;;;;;;;7.95;2.33;;;;;;;8.61;100.00;99859.13;5153916;27;20115;-57
2022/05/18 06:08:44;;;;;;;3.63;2.25;;;;;;;8.49;100.00;99832.53;5153477;27;20047;-55
2022/05/18 06:11:10;;;;;;;2.28;2.17;;;;;;;8.55;100.00;99794.06;5153726;27;20059;-58
2022/05/18 06:13:37;;;;;;;2.60;2.40;;;;;;;8.65;100.00;99760.84;5153469;27;20062;-55
2022/05/18 06:16:04;;;;;;;2.47;2.28;;;;;;;8.65;100.00;99720.66;5153581;27;20054;-60
2022/05/18 06:18:31;;;;;;;3.65;2.15;;;;;;;8.58;100.00;99725.06;5153374;27;20079;-59
2022/05/18 06:20:57;;;;;;;3.03;2.55;;;;;;;8.69;100.00;99705.16;5153218;27;20051;-60
2022/05/18 06:23:24;;;;;;;2.47;2.28;;;;;;;8.53;100.00;99689.75;5153155;27;20420;-58
2022/05/18 06:25:50;;;;;;;2.75;2.22;;;;;;;8.54;100.00;99710.50;5153207;27;20055;-56
2022/05/18 06:28:16;;;;;;;2.53;2.10;;;;;;;8.57;100.00;99715.28;5153136;27;20057;-59
2022/05/18 06:30:42;;;;;;;6.78;2.47;;;;;;;8.53;100.00;99719.81;5153291;27;20098;-58
2022/05/18 06:33:09;;;;;;;4.03;2.38;;;;;;;8.53;100.00;99684.28;5153459;27;20060;-61
2022/05/18 06:35:36;;;;;;;2.22;1.80;;;;;;;8.40;100.00;99626.13;5153109;27;20086;-60
2022/05/18 06:38:10;;;;;;;5.30;3.55;;;;;;;8.64;100.00;99611.69;5153317;27;20046;-58
2022/05/18 06:43:22;;;;;;;2.80;2.50;;;;;;;8.41;100.00;99639.41;5153221;27;20131;-60
2022/05/18 06:45:49;;;;;;;5.97;2.53;;;;;;;8.62;100.00;99650.25;5152907;27;20050;-59
2022/05/18 06:48:15;;;;;;;2.65;2.13;;;;;;;8.59;100.00;99633.75;5152934;27;20479;-57
2022/05/18 06:50:42;;;;;;;4.18;2.30;;;;;;;8.63;100.00;99635.47;5152578;27;20050;-59
2022/05/18 06:53:08;;;;;;;5.10;2.30;;;;;;;8.75;100.00;99625.69;5152618;27;20047;-59
2022/05/18 06:55:34;;;;;;;2.72;2.30;;;;;;;8.85;100.00;99641.63;5152751;27;20059;-59
2022/05/18 06:58:00;;;;;;;3.88;2.45;;;;;;;8.99;100.00;99573.72;5152815;27;20047;-60
2022/05/18 07:00:27;;;;;;;4.40;2.33;;;;;;;8.91;100.00;99500.81;5152892;27;20062;-56
2022/05/18 07:02:53;;;;;;;4.93;2.03;;;;;;;8.97;100.00;99449.44;5152577;27;20050;-60
2022/05/18 07:05:19;;;;;;;2.35;2.15;;;;;;;9.09;100.00;99480.25;5152770;27;20054;-56
2022/05/18 07:07:46;;;;;;;2.58;2.38;;;;;;;9.24;100.00;99443.16;5152316;27;20546;-59
2022/05/18 07:10:12;;;;;;;2.33;2.13;;;;;;;9.07;100.00;99408.72;5152717;27;20051;-58
2022/05/18 07:12:39;;;;;;;2.55;2.20;;;;;;;9.14;100.00;99388.97;5152756;27;20051;-59
2022/05/18 07:15:07;;;;;;;2.28;2.05;;;;;;;9.13;100.00;99369.03;5152793;27;20601;-59
2022/05/18 07:17:33;;;;;;;3.92;2.22;;;;;;;9.06;100.00;99359.81;5152422;27;20054;-59
2022/05/18 07:20:00;;;;;;;6.75;2.30;;;;;;;9.46;100.00;99387.06;5152386;27;20046;-57
2022/05/18 07:22:26;;;;;;;2.10;1.90;;;;;;;9.53;100.00;99310.63;5152505;27;20054;-60
2022/05/18 07:24:53;;;;;;;4.47;2.13;;;;;;;9.95;100.00;99249.78;5152311;27;20560;-58
2022/05/18 07:27:19;;;;;;;3.88;1.92;;;;;;;10.41;100.00;99137.59;5152904;27;20576;-59
2022/05/18 07:29:45;;;;;;;2.80;1.92;;;;;;;10.45;100.00;99066.41;5152320;27;20057;-57
2022/05/18 07:32:14;;;;;;;3.30;1.98;;;;;;;10.36;100.00;99029.09;5152300;27;20051;-56
2022/05/18 07:34:41;;;;;;;3.72;2.10;;;;;;;10.29;100.00;99015.25;5152384;27;20066;-57
2022/05/18 07:37:08;;;;;;;3.97;1.90;;;;;;;10.50;100.00;99031.28;5152555;27;20115;-57
2022/05/18 07:39:35;;;;;;;2.05;1.85;;;;;;;10.01;100.00;98999.09;5152322;27;20410;-57
2022/05/18 07:42:04;;;;;;;1.83;1.63;;;;;;;9.95;100.00;99038.91;5152388;27;20046;-57
2022/05/18 07:44:30;;;;;;;1.70;1.60;;;;;;;10.18;100.00;99047.13;5151849;27;20059;-59
2022/05/18 07:46:56;;;;;;;3.53;1.98;;;;;;;10.38;100.00;98998.56;5152095;27;20057;-59
2022/05/18 07:49:22;;;;;;;2.08;1.88;;;;;;;10.55;100.00;98964.38;5152132;27;20046;-57
2022/05/18 07:51:49;;;;;;;4.40;1.77;;;;;;;10.06;100.00;98945.97;5151995;27;20378;-56
2022/05/18 07:54:15;;;;;;;2.13;2.00;;;;;;;10.65;100.00;98938.28;5152295;27;20073;-59
2022/05/18 07:56:42;;;;;;;6.20;1.90;;;;;;;10.82;100.00;98918.53;5151873;27;20047;-59
2022/05/18 07:59:11;;;;;;;2.35;1.25;;;;;;;11.07;100.00;98862.03;5152016;27;20170;-60
2022/05/18 08:01:39;;;;;;;4.57;1.90;;;;;;;11.54;100.00;98826.78;5152054;27;20050;-59
2022/05/18 08:04:05;;;;;;;2.92;2.55;;;;;;;11.64;100.00;98781.38;5151186;27;20065;-59
2022/05/18 08:06:32;;;;;;;4.45;1.65;;;;;;;11.60;100.00;98786.84;5151718;27;20467;-59
2022/05/18 08:08:58;;;;;;;1.98;1.60;;;;;;;11.70;100.00;98788.09;5152036;27;20058;-60
2022/05/18 08:16:53;;;;;;;4.05;1.80;;;;;;;12.35;100.00;98792.81;5151724;27;20045;-56
2022/05/18 08:19:20;;;;;;;2.97;1.30;;;;;;;12.07;100.00;98806.41;5151562;27;20095;-58
2022/05/18 08:21:47;;;;;;;1.40;1.30;;;;;;;12.12;100.00;98789.56;5151644;27;20493;-60
2022/05/18 08:24:14;;;;;;;1.92;1.35;;;;;;;11.88;100.00;98808.25;5151219;27;20057;-60
2022/05/18 08:26:41;;;;;;;4.22;1.60;;;;;;;12.17;100.00;98809.22;5151753;27;20051;-56
2022/05/18 08:29:08;;;;;;;3.90;1.38;;;;;;;11.76;100.00;98808.50;5151279;27;20054;-60
2022/05/18 08:31:34;;;;;;;3.75;1.58;;;;;;;11.98;100.00;98802.03;5151467;27;20061;-61
2022/05/18 08:34:01;;;;;;;1.35;1.25;;;;;;;11.84;100.00;98809.38;5151086;27;20061;-59
2022/05/18 08:36:27;;;;;;;1.98;1.30;;;;;;;12.09;100.00;98809.56;5151315;27;20047;-58
2022/05/18 08:38:55;;;;;;;5.32;1.55;;;;;;;12.00;100.00;98812.66;5151424;27;20054;-56
2022/05/18 08:41:24;;;;;;;2.45;1.60;;;;;;;12.16;100.00;98813.16;5151104;27;20055;-58
2022/05/18 08:43:54;;;;;;;9.45;1.67;;;;;;;12.52;100.00;98807.81;5151117;27;20111;-56
2022/05/18 08:46:32;;;;;;;5.93;2.30;;;;;;;13.08;100.00;98835.91;5151241;27;20079;-58
2022/05/18 08:49:07;;;;;;;1.98;1.15;;;;;;;13.12;100.00;98848.50;5151331;27;20054;-57
2022/05/18 08:51:55;;;;;;;1.40;1.35;;;;;;;14.09;100.00;98901.75;5150968;27;20090;-61
2022/05/18 08:54:38;;;;;;;1.55;1.40;;;;;;;14.53;100.00;98993.53;5151365;27;20062;-59
2022/05/18 08:57:15;;;;;;;3.60;1.75;;;;;;;14.47;100.00;98979.31;5151058;27;20058;-60
2022/05/18 08:59:42;;;;;;;1.35;1.20;;;;;;;13.89;100.00;98980.47;5151019;27;20058;-60
2022/05/18 09:02:16;;;;;;;1.80;1.70;;;;;;;14.15;100.00;98962.00;5151179;27;20055;-59
2022/05/18 09:04:47;;;;;;;1.60;1.48;;;;;;;13.99;100.00;98987.19;5150660;27;20135;-60
2022/05/18 09:07:17;;;;;;;1.52;1.42;;;;;;;13.87;100.00;98964.34;5150974;27;20047;-59
2022/05/18 09:12:35;;;;;;;5.13;1.77;;;;;;;13.77;100.00;98998.19;5150744;27;20535;-58
2022/05/18 09:15:03;;;;;;;1.95;1.85;;;;;;;14.16;100.00;98986.44;5152787;27;20550;-56
2022/05/18 09:17:36;;;;;;;2.00;1.58;;;;;;;14.61;100.00;99002.59;5154677;27;20051;-58
2022/05/18 09:20:14;;;;;;;1.80;1.70;;;;;;;14.97;100.00;99045.50;5154872;27;20046;-57
2022/05/18 09:22:56;;;;;;;5.78;2.20;;;;;;;15.91;100.00;99059.81;5154300;27;20143;-60
2022/05/18 09:25:30;;;;;;;5.50;1.92;;;;;;;16.17;100.00;99091.66;5154574;27;20058;-58
2022/05/18 09:28:10;;;;;;;2.25;2.05;;;;;;;15.14;100.00;99101.88;5154294;27;20061;-60
2022/05/18 09:30:44;;;;;;;1.70;1.60;;;;;;;14.71;100.00;99073.53;5154008;27;20050;-59
2022/05/18 09:33:41;;;;;;;3.60;1.40;;;;;;;15.81;100.00;99085.53;5154677;27;20081;-60
2022/05/18 09:36:34;;;;;;;2.92;1.60;;;;;;;16.28;100.00;99114.50;5154344;27;20611;-61
2022/05/18 09:39:04;;;;;;;4.97;1.52;;;;;;;15.73;100.00;99159.41;5153967;27;20062;-59
2022/05/18 09:41:36;;;;;;;2.70;1.90;;;;;;;15.63;100.00;99146.38;5154060;27;20061;-60
2022/05/18 09:44:09;;;;;;;3.13;1.48;;;;;;;15.71;100.00;99103.72;5153914;27;20149;-60
2022/05/18 09:46:37;;;;;;;2.00;1.60;;;;;;;15.42;100.00;99114.81;5154460;27;20062;-59
2022/05/18 09:49:12;;;;;;;3.75;1.92;;;;;;;15.09;100.00;99090.44;5154100;27;20173;-59
2022/05/18 09:51:39;;;;;;;1.70;1.60;;;;;;;15.45;100.00;99116.78;5153968;27;20051;-59
2022/05/18 09:54:06;;;;;;;3.28;1.80;;;;;;;16.19;100.00;99117.72;5153825;27;20062;-61
2022/05/18 09:56:39;;;;;;;2.58;1.63;;;;;;;16.25;100.00;99159.56;5153928;27;20107;-59
2022/05/18 09:59:22;;;;;;;2.50;1.60;;;;;;;16.47;100.00;99172.09;5153772;27;20123;-61
2022/05/18 10:07:34;;;;;;;2.20;2.00;;;;;;;15.39;100.00;99172.84;5049684;28;20063;-57
2022/05/18 10:10:10;;;;;;;2.47;1.85;;;;;;;15.29;100.00;99124.72;5131232;27;20086;-60
2022/05/18 10:12:40;;;;;;;1.98;1.88;;;;;;;15.00;100.00;99099.13;5153584;27;20051;-60
2022/05/18 10:15:18;;;;;;;4.05;2.00;;;;;;;14.62;100.00;99090.47;5153805;27;20062;-58
2022/05/18 10:17:48;;;;;;;2.13;1.83;;;;;;;14.30;100.00;99082.16;5153272;27;20059;-60
2022/05/18 10:20:25;;;;;;;5.60;2.03;;;;;;;14.80;100.00;99079.44;5153626;27;20058;-59
2022/05/18 10:22:53;;;;;;;2.47;2.00;;;;;;;14.74;100.00;99054.22;5153412;27;20089;-60
2022/05/18 10:25:26;;;;;;;3.53;1.70;;;;;;;14.59;100.00;99072.75;5152797;27;20103;-61
2022/05/18 10:27:54;;;;;;;3.08;2.10;;;;;;;14.09;100.00;99067.16;5152853;27;20059;-61
2022/05/18 10:30:28;;;;;;;4.25;2.00;;;;;;;14.19;100.00;99045.47;5153334;27;20051;-59
2022/05/18 10:32:58;;;;;;;2.35;2.15;;;;;;;14.15;100.00;99042.72;5153262;27;20103;-60
2022/05/18 10:35:38;;;;;;;2.33;2.13;;;;;;;13.39;100.00;99013.38;5152967;27;20557;-59
2022/05/18 10:38:17;;;;;;;2.50;2.15;;;;;;;13.51;100.00;98988.25;5153119;27;20604;-60
2022/05/18 10:40:43;;;;;;;1.70;1.60;;;;;;;13.81;100.00;98981.66;5153179;27;20058;-57
2022/05/18 10:43:31;;;;;;;1.75;1.63;;;;;;;13.30;100.00;99010.22;5153145;27;20058;-60
2022/05/18 10:46:01;;;;;;;1.83;1.73;;;;;;;13.63;100.00;98968.63;5152994;27;20097;-55
2022/05/18 10:48:30;;;;;;;2.30;2.15;;;;;;;14.04;100.00;98979.31;5152789;27;20055;-56
2022/05/18 10:51:07;;;;;;;2.88;2.35;;;;;;;14.25;100.00;98994.28;5153112;27;20566;-59
2022/05/18 10:53:38;;;;;;;2.08;1.88;;;;;;;15.00;100.00;99019.88;5152769;27;20557;-53
2022/05/18 10:56:09;;;;;;;3.90;2.10;;;;;;;15.46;100.00;99042.97;5152673;27;20058;-63
2022/05/18 10:58:42;;;;;;;1.80;1.70;;;;;;;15.44;100.00;99071.03;5152759;27;20459;-61
2022/05/18 11:01:14;;;;;;;2.13;2.00;;;;;;;14.75;100.00;99063.28;5152504;27;20062;-61
2022/05/18 11:03:49;;;;;;;1.88;1.77;;;;;;;14.23;100.00;99007.66;5152665;27;20077;-60
2022/05/18 11:06:20;;;;;;;2.10;1.95;;;;;;;14.08;100.00;99002.16;5152377;27;20059;-57
2022/05/18 11:08:47;;;;;;;3.90;1.77;;;;;;;14.17;100.00;98999.03;5152704;27;20493;-60
2022/05/18 11:11:23;;;;;;;4.30;1.65;;;;;;;14.45;100.00;98997.44;5152505;27;20058;-53
2022/05/18 11:14:01;;;;;;;2.92;1.98;;;;;;;15.07;100.00;99005.25;5152674;27;20145;-59
2022/05/18 11:16:46;;;;;;;4.22;2.15;;;;;;;14.96;100.00;99018.28;5152361;27;20058;-60
2022/05/18 11:19:24;;;;;;;1.92;1.83;;;;;;;14.37;100.00;99032.50;5152255;27;20061;-59
2022/05/18 11:22:03;;;;;;;1.48;1.38;;;;;;;14.47;100.00;99028.97;5152463;27;20050;-58
2022/05/18 11:24:40;;;;;;;2.80;1.90;;;;;;;14.41;100.00;99025.03;5152347;27;20054;-60
2022/05/18 11:27:20;;;;;;;8.43;1.40;;;;;;;14.61;100.00;99024.66;5152239;27;20054;-58
2022/05/18 11:29:57;;;;;;;2.65;1.70;;;;;;;14.16;100.00;99060.88;5152036;27;20424;-60
2022/05/18 11:32:31;;;;;;;1.10;1.10;;;;;;;14.21;100.00;99054.16;5152074;27;20114;-60
2022/05/18 11:35:07;;;;;;;1.20;1.20;;;;;;;14.20;100.00;99008.47;5152063;27;20090;-61
2022/05/18 11:37:48;;;;;;;2.67;1.60;;;;;;;14.34;100.00;99014.00;5151461;27;20107;-58
2022/05/18 11:40:23;;;;;;;3.45;1.50;;;;;;;14.66;100.00;99035.28;5152010;27;20065;-61
2022/05/18 11:43:25;;;;;;;4.13;1.50;;;;;;;14.63;100.00;99036.88;5152190;27;20050;-59
2022/05/18 11:45:58;;;;;;;3.30;1.30;;;;;;;14.64;100.00;99016.38;5151774;27;20097;-59
2022/05/18 11:48:33;;;;;;;1.92;1.60;;;;;;;14.80;100.00;99024.25;5152427;27;20066;-61
2022/05/18 11:51:04;;;;;;;;;;;;;;;14.66;100.00;99046.31;5152196;27;20047;-60
2022/05/18 11:53:52;;;;;;;4.60;1.70;;;;;;;14.76;100.00;99035.28;5151850;27;20347;-58
2022/05/18 11:56:29;;;;;;;1.45;1.35;;;;;;;14.89;100.00;99057.72;5151739;27;20062;-61
2022/05/18 11:59:29;;;;;;;5.15;1.70;;;;;;;14.97;100.00;99045.50;5151923;27;20051;-59
2022/05/18 12:02:10;;;;;;;6.03;1.55;;;;;;;15.09;100.00;99046.25;5151738;27;20616;-62
2022/05/18 12:04:58;;;;;;;5.28;1.25;;;;;;;14.88;100.00;99053.41;5151442;27;20406;-56
2022/05/18 12:07:38;;;;;;;2.72;1.50;;;;;;;14.99;100.00;99054.16;5152007;27;20059;-56
2022/05/18 12:10:20;;;;;;;2.20;2.00;;;;;;;15.21;100.00;99049.38;5151710;27;20061;-61
2022/05/18 12:12:53;;;;;;;2.47;1.48;;;;;;;15.40;100.00;99044.59;5151495;27;20051;-58
2022/05/18 12:15:29;;;;;;;1.50;1.40;;;;;;;15.56;100.00;99069.81;5151693;27;20111;-59
2022/05/18 12:18:00;;;;;;;1.63;1.52;;;;;;;15.25;100.00;99074.22;5151442;27;20054;-59
2022/05/18 12:20:31;;;;;;;2.75;1.60;;;;;;;15.27;100.00;99100.28;5151581;27;20050;-60
2022/05/18 12:23:00;;;;;;;2.92;1.73;;;;;;;15.14;100.00;99112.91;5151413;27;20050;-60
2022/05/18 12:25:29;;;;;;;2.17;1.20;;;;;;;15.13;100.00;99138.16;5151329;27;20123;-59
2022/05/18 12:27:59;;;;;;;3.55;1.30;;;;;;;15.01;100.00;99167.75;5151380;27;20050;-59
2022/05/18 12:30:28;;;;;;;1.35;1.25;;;;;;;15.08;100.00;99150.41;5151649;27;20573;-57
2022/05/18 12:32:56;;;;;;;4.47;1.30;;;;;;;15.07;100.00;99146.06;5151320;27;20051;-60
2022/05/18 12:35:26;;;;;;;2.58;1.30;;;;;;;15.04;100.00;99109.00;5151421;27;20107;-57
2022/05/18 12:38:05;;;;;;;1.50;1.40;;;;;;;14.88;100.00;99081.00;5151248;27;20051;-53
2022/05/18 12:40:35;;;;;;;1.83;1.48;;;;;;;15.01;100.00;99090.44;5151316;27;20047;-57
2022/05/18 12:43:12;;;;;;;2.78;1.63;;;;;;;15.09;100.00;99124.34;5151546;27;20569;-58
2022/05/18 12:45:44;;;;;;;2.15;1.02;;;;;;;14.98;100.00;99184.31;5151154;27;20051;-61
2022/05/18 12:48:16;;;;;;;2.05;1.40;;;;;;;14.94;100.00;99155.94;5150931;27;20054;-63
2022/05/18 12:51:02;;;;;;;1.85;1.17;;;;;;;14.73;100.00;99148.44;5154397;27;20057;-58
2022/05/18 12:53:42;;;;;;;1.45;1.10;;;;;;;14.85;100.00;99150.78;5154745;27;20082;-59
2022/05/18 12:56:15;;;;;;;2.08;0.90;;;;;;;14.98;100.00;99135.41;5154675;27;20058;-58
2022/05/18 12:58:44;;;;;;;4.45;1.42;;;;;;;14.84;100.00;99132.66;5154906;27;20050;-55
2022/05/18 13:01:12;;;;;;;1.88;1.20;;;;;;;15.12;100.00;99129.09;5154943;27;20051;-58
2022/05/18 13:03:45;;;;;;;2.92;1.13;;;;;;;15.22;100.00;99119.22;5154967;27;20088;-57
2022/05/18 13:06:17;;;;;;;4.82;1.67;;;;;;;15.04;100.00;99157.91;5154552;27;20054;-60
2022/05/18 13:09:00;;;;;;;3.72;1.95;;;;;;;15.12;100.00;99147.63;5154503;27;20050;-60
2022/05/18 13:11:33;;;;;;;3.72;1.70;;;;;;;15.41;100.00;99173.25;5154513;27;20107;-56
2022/05/18 13:14:20;;;;;;;1.40;1.30;;;;;;;15.18;100.00;99157.09;5154523;27;20509;-55
2022/05/18 13:17:14;;;;;;;1.30;1.20;;;;;;;15.29;100.00;99144.06;5154557;27;20050;-58
2022/05/18 13:19:46;;;;;;;4.18;1.30;;;;;;;15.37;100.00;99142.09;5154365;27;20054;-56
2022/05/18 13:22:25;;;;;;;4.13;1.67;;;;;;;15.23;100.00;99116.06;5154480;27;20061;-56
2022/05/18 13:24:55;;;;;;;2.70;1.42;;;;;;;15.23;100.00;99098.72;5154064;27;20046;-54
2022/05/18 13:27:31;;;;;;;1.88;1.27;;;;;;;15.08;100.00;99092.41;5154290;27;20451;-56
2022/05/18 13:30:00;;;;;;;6.53;1.60;;;;;;;15.09;100.00;99066.38;5154327;27;20050;-57
2022/05/18 13:32:27;;;;;;;2.65;1.30;;;;;;;15.04;100.00;99080.59;5154321;27;20073;-55
2022/05/18 13:35:03;;;;;;;4.80;1.42;;;;;;;15.29;100.00;99075.00;5154243;27;20054;-56
2022/05/18 13:37:29;;;;;;;1.55;1.20;;;;;;;15.05;100.00;99063.63;5154289;27;20051;-56
2022/05/18 13:39:56;;;;;;;8.15;1.08;;;;;;;15.37;100.00;99045.41;5154230;27;20415;-57
2022/05/18 13:42:25;;;;;;;2.35;1.42;;;;;;;15.39;100.00;99074.19;5153910;27;20046;-53
2022/05/18 13:44:53;;;;;;;2.42;0.90;;;;;;;15.18;100.00;99049.41;5153770;27;20078;-53
2022/05/18 13:47:23;;;;;;;2.22;1.10;;;;;;;15.34;100.00;99041.47;5153713;27;20050;-50
2022/05/18 13:49:50;;;;;;;1.13;1.02;;;;;;;15.09;100.00;99032.47;5153650;27;20054;-53
2022/05/18 13:52:21;;;;;;;1.40;1.00;;;;;;;15.15;100.00;99062.03;5153781;27;20436;-52
2022/05/18 13:54:51;;;;;;;1.25;1.00;;;;;;;15.19;100.00;99064.78;5154044;27;20050;-51
2022/05/18 13:57:20;;;;;;;1.85;1.33;;;;;;;15.17;100.00;99053.34;5153848;27;20120;-52
2022/05/18 13:59:52;;;;;;;0.90;0.90;;;;;;;15.26;100.00;99086.84;5154014;27;20062;-52
2022/05/18 14:02:21;;;;;;;2.53;1.00;;;;;;;15.07;100.00;99071.53;5152405;27;20565;-53
2022/05/18 14:04:51;;;;;;;0.90;0.90;;;;;;;14.55;100.00;99062.88;5153758;27;20058;-52
2022/05/18 14:07:20;;;;;;;4.13;1.00;;;;;;;14.80;100.00;99046.31;5153588;27;20050;-52
2022/05/18 14:09:48;;;;;;;0.60;0.60;;;;;;;14.86;100.00;99033.72;5153448;27;20079;-53
2022/05/18 14:12:16;;;;;;;1.95;0.90;;;;;;;14.66;100.00;99049.06;5153648;27;20051;-54
2022/05/18 14:14:43;;;;;;;1.88;1.05;;;;;;;14.57;100.00;99024.66;5153680;27;20089;-52
2022/05/18 14:17:13;;;;;;;1.27;0.90;;;;;;;14.83;100.00;99029.75;5153677;27;20051;-52
2022/05/18 14:19:42;;;;;;;0.77;0.77;;;;;;;14.76;100.00;99049.09;5153624;27;20059;-51
2022/05/18 14:22:12;;;;;;;1.70;0.90;;;;;;;15.06;100.00;99080.97;5153266;27;20058;-53
2022/05/18 14:24:43;;;;;;;1.02;0.80;;;;;;;14.67;100.00;99090.09;5153320;27;20055;-51
2022/05/18 14:27:11;;;;;;;1.27;1.00;;;;;;;14.65;100.00;99075.09;5153610;27;20047;-50
2022/05/18 14:29:42;;;;;;;4.65;0.93;;;;;;;14.87;100.00;99067.59;5153237;27;20069;-50
2022/05/18 14:32:14;;;;;;;2.20;0.85;;;;;;;14.65;100.00;99075.09;5153027;27;20489;-49
2022/05/18 14:34:45;;;;;;;3.40;0.93;;;;;;;14.63;100.00;99075.50;5153390;27;20050;-49
2022/05/18 14:37:18;;;;;;;0.82;0.80;;;;;;;14.79;100.00;99099.91;5153226;27;20055;-50
2022/05/18 14:39:48;;;;;;;3.13;0.70;;;;;;;14.67;100.00;99128.72;5153290;27;20065;-53
2022/05/18 14:42:15;;;;;;;0.68;0.68;;;;;;;14.80;100.00;99140.16;5153115;27;20072;-49
2022/05/18 14:44:51;;;;;;;3.95;1.00;;;;;;;14.81;100.00;99119.66;5153366;27;20047;-49
2022/05/18 14:47:28;;;;;;;6.05;0.95;;;;;;;14.65;100.00;99117.28;5153095;27;20046;-49
2022/05/18 14:49:56;;;;;;;0.80;0.80;;;;;;;14.55;100.00;99101.50;5153032;27;20426;-49
2022/05/18 14:52:33;;;;;;;1.48;0.73;;;;;;;14.61;100.00;99121.22;5152872;27;20054;-49
2022/05/18 14:55:08;;;;;;;3.80;1.20;;;;;;;14.73;100.00;99140.94;5153198;27;20059;-52
2022/05/18 14:57:37;;;;;;;0.70;0.68;;;;;;;14.81;100.00;99131.47;5153117;27;20398;-49
2022/05/18 15:00:08;;;;;;;1.20;0.60;;;;;;;14.73;100.00;99126.34;5152880;27;20051;-52
2022/05/18 15:02:40;;;;;;;3.22;0.90;;;;;;;14.83;100.00;99114.53;5152953;27;20058;-49
2022/05/18 15:05:10;;;;;;;0.70;0.70;;;;;;;14.76;100.00;99122.78;5152981;27;20094;-50
2022/05/18 15:07:39;;;;;;;1.10;1.00;;;;;;;14.60;100.00;99103.88;5152790;27;20058;-50
2022/05/18 15:10:16;;;;;;;6.20;0.82;;;;;;;14.67;100.00;99092.06;5152752;27;20065;-51
2022/05/18 15:12:46;;;;;;;1.13;0.75;;;;;;;14.82;100.00;99088.88;5152540;27;20065;-53
2022/05/18 15:15:20;;;;;;;1.00;1.00;;;;;;;14.66;100.00;99065.63;5152533;27;20123;-50
2022/05/18 15:17:53;;;;;;;3.20;1.27;;;;;;;14.78;100.00;99057.75;5152766;27;20051;-50
2022/05/18 15:20:22;;;;;;;1.23;0.93;;;;;;;14.66;100.00;99091.28;5152583;27;20055;-50
2022/05/18 15:22:52;;;;;;;0.70;0.70;;;;;;;14.45;100.00;99096.72;5152655;27;20057;-49
2022/05/18 15:25:40;;;;;;;4.28;0.90;;;;;;;14.51;100.00;99089.69;5152528;27;20068;-50
2022/05/18 15:28:14;;;;;;;1.58;0.82;;;;;;;14.64;100.00;99084.56;5152349;27;20590;-50
2022/05/18 15:30:44;;;;;;;1.75;0.90;;;;;;;14.77;100.00;99097.56;5152899;27;20508;-51
2022/05/18 15:33:11;;;;;;;1.60;1.08;;;;;;;14.85;100.00;99100.31;5152348;27;20059;-50
2022/05/18 15:35:43;;;;;;;0.75;0.73;;;;;;;14.82;100.00;99077.06;5152361;27;20054;-53
2022/05/18 15:38:11;;;;;;;0.80;0.80;;;;;;;14.68;100.00;99072.34;5152233;27;20051;-53
2022/05/18 15:40:39;;;;;;;7.00;2.13;;;;;;;14.66;100.00;99010.44;5152359;27;20055;-52
2022/05/18 15:43:05;;;;;;;1.20;1.00;;;;;;;14.77;100.00;99047.13;5152326;27;20078;-52
2022/05/18 15:45:32;;;;;;;2.45;1.20;;;;;;;14.73;100.00;99043.56;5152160;27;20065;-50
2022/05/18 15:48:01;;;;;;;5.32;0.90;;;;;;;14.76;100.00;99037.25;5152082;27;20051;-51
2022/05/18 15:50:34;;;;;;;2.60;1.00;;;;;;;14.90;100.00;99037.25;5151995;27;20459;-53
2022/05/18 15:53:01;;;;;;;1.05;0.93;;;;;;;14.91;100.00;99036.03;5152406;27;20509;-54
2022/05/18 15:55:29;;;;;;;1.40;0.90;;;;;;;14.77;100.00;99044.34;5151981;27;20061;-54
2022/05/18 15:57:58;;;;;;;1.40;1.10;;;;;;;14.71;100.00;99030.16;5151990;27;20425;-53
2022/05/18 16:00:26;;;;;;;1.38;1.00;;;;;;;14.63;100.00;99031.38;5152277;27;20099;-49
2022/05/18 16:02:52;;;;;;;1.83;1.02;;;;;;;14.42;100.00;99012.00;5152139;27;20516;-51
2022/05/18 16:05:20;;;;;;;2.05;1.23;;;;;;;14.45;100.00;99008.47;5152203;27;20061;-52
2022/05/18 16:07:49;;;;;;;1.40;1.30;;;;;;;14.37;100.00;99004.94;5152120;27;20065;-50
2022/05/18 16:10:17;;;;;;;0.88;0.80;;;;;;;14.38;100.00;99008.47;5151742;27;20063;-50
2022/05/18 16:12:45;;;;;;;1.25;1.13;;;;;;;14.35;100.00;98990.75;5151860;27;20061;-50
2022/05/18 16:15:12;;;;;;;2.88;1.10;;;;;;;14.28;100.00;99021.06;5151799;27;20432;-50
2022/05/18 16:17:38;;;;;;;2.85;1.20;;;;;;;14.56;100.00;99026.63;5151552;27;20406;-51
2022/05/18 16:20:07;;;;;;;2.75;1.40;;;;;;;14.45;100.00;99020.28;5152011;27;20050;-52
2022/05/18 16:22:35;;;;;;;3.30;1.20;;;;;;;14.45;100.00;99014.78;5151715;27;20586;-52
2022/05/18 16:25:04;;;;;;;6.13;1.40;;;;;;;14.42;100.00;99014.78;5150825;27;20398;-50
2022/05/18 16:27:31;;;;;;;1.95;1.27;;;;;;;14.45;100.00;99014.78;5151867;27;20082;-50
2022/05/18 16:29:58;;;;;;;1.55;1.10;;;;;;;14.47;100.00;99017.94;5151500;27;20051;-51
2022/05/18 16:32:25;;;;;;;2.33;1.40;;;;;;;14.32;100.00;99003.34;5151611;27;20509;-50
2022/05/18 16:34:51;;;;;;;1.45;1.35;;;;;;;14.26;100.00;98993.09;5151418;27;20055;-51
2022/05/18 16:37:18;;;;;;;3.10;1.48;;;;;;;14.21;100.00;98997.03;5151469;27;20055;-50
2022/05/18 16:39:44;;;;;;;1.30;1.10;;;;;;;14.14;100.00;99024.63;5151458;27;20536;-50
2022/05/18 16:42:15;;;;;;;1.90;1.25;;;;;;;14.01;100.00;99026.94;5151381;27;20055;-50
2022/05/18 16:44:44;;;;;;;1.65;1.10;;;;;;;14.09;100.00;99038.78;5151089;27;20051;-50
2022/05/18 16:47:10;;;;;;;3.20;1.60;;;;;;;14.09;100.00;99049.78;5151247;27;20103;-50
2022/05/18 16:49:36;;;;;;;2.00;1.20;;;;;;;14.29;100.00;99062.03;5151336;27;20159;-50